Decoded Metar for KAGC (PITTSBURGH/ALLEG in PA, USA) (IATA:AGC) | Meteo·Mobile Aviation Weather
aviador You're here:

KAGC Decoded Metar

PITTSBURGH/ALLEG in PA, USA
Report Time2018-12-14 12:53:00
UTC Time2018-12-14 13:24:54
Flight Rules vfr VFR
Wind140° at 06 kt
W.Decomp.*RWY 13: 5.7 kt HW 2.0 kt RCW
RWY 10: 3.9 kt HW 4.5 kt RCW
W.Rank140° ranks 22
Current wind is above 140° avg. (5.6)
Visibility9999 m
Phenomena:N/A
Clouds:N/A
Expected CloudBase > 1,600 ft AGL from Temp-Dew spread
CeilingNone
Temp03°C (ISA -9)
Dew Point-1°C (75% RH)
AAT-1.3°C
QNH1023 hPa
Density Alt-125 ft
Elevation1,276 ft
Report Wrong Elevation
Raw Report
KAGC 141253Z 14006KT 10SM CLR 03/M01 A3022 RMK AO2 SLP246
T00281006 $=

Extra information for KAGC:More info

Metar Taf Metar & Taf Last 4 Metars F.Rules Stats Wind Profile Meteogram Temp Stats Airport Information Weather charts Add Link Nearby VenuesMetar ALERT Operation Metar Decoded Social comments

AIRNAV info for KAGC